Time;durP1;ratioP1;P1;durP2;ratioP2;P2;SDS_P1;SDS_P2;PMS_P1;PMS_P2;Temp;Humidity;BMP_temperature;BMP_pressure;BME280_temperature;BME280_humidity;BME280_pressure;Samples;Min_cycle;Max_cycle;Signal;HPM_P1;HPM_P2
2022/12/20 00:02:23;;;;;;;3.85;2.45;;;;;;;;;;5038661;28;20470;-84
2022/12/20 00:04:49;;;;;;;4.65;2.90;;;;;;;;;;5019999;28;20108;-82
2022/12/20 00:07:15;;;;;;;5.80;2.97;;;;;;;;;;5020875;28;20034;-84
2022/12/20 00:09:40;;;;;;;4.60;2.78;;;;;;;;;;5038422;28;20032;-84
2022/12/20 00:12:06;;;;;;;4.68;2.50;;;;;;;;;;5020353;28;20088;-84
2022/12/20 00:14:31;;;;;;;4.72;2.50;;;;;;;;;;5020425;28;20033;-84
2022/12/20 00:16:57;;;;;;;4.68;2.60;;;;;;;;;;5020533;28;20033;-84
2022/12/20 00:19:22;;;;;;;4.97;2.75;;;;;;;;;;5037875;28;20025;-84
2022/12/20 00:21:48;;;;;;;4.72;2.80;;;;;;;;;;5039372;28;20367;-83
2022/12/20 00:24:14;;;;;;;5.15;2.70;;;;;;;;;;5020520;28;20394;-84
2022/12/20 00:26:39;;;;;;;4.38;2.42;;;;;;;;;;5038009;28;20025;-83
2022/12/20 00:29:05;;;;;;;4.35;2.60;;;;;;;;;;5004199;28;20549;-83
2022/12/20 00:31:31;;;;;;;3.85;2.38;;;;;;;;;;5020434;28;20029;-83
2022/12/20 00:33:58;;;;;;;5.18;2.67;;;;;;;;;;5003555;28;20025;-81
2022/12/20 00:36:26;;;;;;;4.53;2.80;;;;;;;;;;5038221;28;20040;-83
2022/12/20 00:38:53;;;;;;;4.63;2.60;;;;;;;;;;5038181;28;20113;-84
2022/12/20 00:41:26;;;;;;;4.40;2.75;;;;;;;;;;5019824;28;20116;-83
2022/12/20 00:43:52;;;;;;;5.63;2.80;;;;;;;;;;5020582;28;20540;-83
2022/12/20 00:46:19;;;;;;;6.22;2.85;;;;;;;;;;5019688;28;20033;-83
2022/12/20 00:48:45;;;;;;;4.72;2.70;;;;;;;;;;5003752;28;20037;-83
2022/12/20 00:51:14;;;;;;;4.85;2.83;;;;;;;;;;5020119;28;20027;-83
2022/12/20 00:53:40;;;;;;;5.07;3.13;;;;;;;;;;5019485;28;20037;-83
2022/12/20 00:56:07;;;;;;;6.70;2.90;;;;;;;;;;5018928;28;20033;-83
2022/12/20 00:58:37;;;;;;;5.75;2.83;;;;;;;;;;5003628;28;20041;-82
2022/12/20 01:01:05;;;;;;;4.95;2.67;;;;;;;;;;5003607;28;20190;-82
2022/12/20 01:03:30;;;;;;;4.53;2.75;;;;;;;;;;5019769;28;20603;-82
2022/12/20 01:05:58;;;;;;;5.60;3.38;;;;;;;;;;5037878;28;20049;-82
2022/12/20 01:08:26;;;;;;;5.32;3.10;;;;;;;;;;5019931;28;20474;-83
2022/12/20 01:11:21;;;;;;;7.00;3.33;;;;;;;;;;5019623;28;20433;-82
2022/12/20 01:13:50;;;;;;;5.05;2.88;;;;;;;;;;5018599;28;20041;-82
2022/12/20 01:16:21;;;;;;;4.90;2.55;;;;;;;;;;5036434;28;20039;-82
2022/12/20 01:18:48;;;;;;;4.65;2.63;;;;;;;;;;5021676;28;20060;-82
2022/12/20 01:21:15;;;;;;;3.88;2.35;;;;;;;;;;5036708;28;20040;-81
2022/12/20 01:23:41;;;;;;;4.95;2.50;;;;;;;;;;5002953;28;20422;-82
2022/12/20 01:26:10;;;;;;;4.70;2.38;;;;;;;;;;5002892;28;20037;-81
2022/12/20 01:28:38;;;;;;;3.40;2.25;;;;;;;;;;5002661;28;20057;-81
2022/12/20 01:31:13;;;;;;;6.28;2.60;;;;;;;;;;5035823;28;20549;-81
2022/12/20 01:33:38;;;;;;;4.57;2.45;;;;;;;;;;5037570;28;20021;-82
2022/12/20 01:36:07;;;;;;;5.18;2.78;;;;;;;;;;5036798;28;20458;-80
2022/12/20 01:38:34;;;;;;;5.20;3.40;;;;;;;;;;5019371;28;20034;-82
2022/12/20 01:41:01;;;;;;;8.40;4.47;;;;;;;;;;5019150;28;20017;-82
2022/12/20 01:43:51;;;;;;;9.55;4.78;;;;;;;;;;5036720;28;20059;-82
2022/12/20 01:46:18;;;;;;;9.35;4.90;;;;;;;;;;5002569;28;20045;-82
2022/12/20 01:48:49;;;;;;;9.50;5.47;;;;;;;;;;5018824;28;20374;-82
2022/12/20 01:51:16;;;;;;;9.88;5.78;;;;;;;;;;5036371;28;20029;-82
2022/12/20 01:53:42;;;;;;;12.95;7.10;;;;;;;;;;5018192;28;20029;-82
2022/12/20 01:56:08;;;;;;;12.02;6.50;;;;;;;;;;5018133;28;20592;-82
2022/12/20 01:58:37;;;;;;;10.65;6.03;;;;;;;;;;5018781;28;20409;-83
2022/12/20 02:01:02;;;;;;;8.70;5.18;;;;;;;;;;5019015;28;20033;-83
2022/12/20 02:03:31;;;;;;;9.45;5.57;;;;;;;;;;5018961;28;20033;-83
2022/12/20 02:05:56;;;;;;;11.25;6.78;;;;;;;;;;5001394;28;20501;-83
2022/12/20 02:08:22;;;;;;;11.95;6.75;;;;;;;;;;5018772;28;20474;-83
2022/12/20 02:11:03;;;;;;;12.85;6.70;;;;;;;;;;5018291;28;20043;-83
2022/12/20 02:13:46;;;;;;;9.70;5.63;;;;;;;;;;5018678;28;20029;-83
2022/12/20 02:16:21;;;;;;;9.07;5.07;;;;;;;;;;5017776;28;20034;-82
2022/12/20 02:19:07;;;;;;;10.25;5.30;;;;;;;;;;5002066;28;20039;-83
2022/12/20 02:21:32;;;;;;;8.30;5.10;;;;;;;;;;5018084;28;20029;-82
2022/12/20 02:24:21;;;;;;;8.38;5.00;;;;;;;;;;5018294;28;20079;-82
2022/12/20 02:26:55;;;;;;;9.30;5.40;;;;;;;;;;5001897;28;20040;-82
2022/12/20 02:29:21;;;;;;;11.73;5.78;;;;;;;;;;5018640;28;20037;-82
2022/12/20 02:32:01;;;;;;;10.13;5.47;;;;;;;;;;5018155;28;20033;-83
2022/12/20 02:34:31;;;;;;;9.48;4.82;;;;;;;;;;5001879;28;20033;-84
2022/12/20 02:36:57;;;;;;;8.88;5.38;;;;;;;;;;5017836;28;20026;-83
2022/12/20 02:39:25;;;;;;;8.10;5.03;;;;;;;;;;5018404;28;20099;-82
2022/12/20 02:41:59;;;;;;;8.70;5.10;;;;;;;;;;5019973;28;20087;-82
2022/12/20 02:47:16;;;;;;;8.05;4.68;;;;;;;;;;5022367;28;20040;-83
2022/12/20 02:49:43;;;;;;;10.73;5.18;;;;;;;;;;5022646;28;20052;-82
2022/12/20 02:52:11;;;;;;;7.95;5.03;;;;;;;;;;5043538;23;20451;-88
2022/12/20 02:54:37;;;;;;;9.23;5.07;;;;;;;;;;5018685;28;20025;-88
2022/12/20 02:57:17;;;;;;;9.25;4.78;;;;;;;;;;5019777;28;20030;-88
2022/12/20 02:59:56;;;;;;;7.32;4.70;;;;;;;;;;5019217;28;20548;-87
2022/12/20 03:02:23;;;;;;;9.38;4.90;;;;;;;;;;5018753;28;20033;-87
2022/12/20 03:04:50;;;;;;;11.10;5.45;;;;;;;;;;5018443;28;20029;-87
2022/12/20 03:07:15;;;;;;;10.20;5.35;;;;;;;;;;5018783;28;20017;-88
2022/12/20 03:09:43;;;;;;;9.55;5.57;;;;;;;;;;5018675;28;20037;-87
2022/12/20 03:12:14;;;;;;;11.60;5.78;;;;;;;;;;5018555;28;20047;-88
2022/12/20 03:14:41;;;;;;;9.10;5.32;;;;;;;;;;5017608;28;20355;-88
2022/12/20 03:17:08;;;;;;;9.73;5.50;;;;;;;;;;5001560;28;20116;-88
2022/12/20 03:19:36;;;;;;;9.40;5.45;;;;;;;;;;5017524;28;20029;-88
2022/12/20 03:22:02;;;;;;;8.80;4.88;;;;;;;;;;5017880;28;20615;-88
2022/12/20 03:24:31;;;;;;;8.60;4.80;;;;;;;;;;5035116;28;20032;-87
2022/12/20 03:26:57;;;;;;;13.40;7.22;;;;;;;;;;5017603;28;20034;-87
2022/12/20 03:29:23;;;;;;;12.27;6.30;;;;;;;;;;5017887;28;20373;-87
2022/12/20 03:31:49;;;;;;;9.57;5.65;;;;;;;;;;5035761;28;20021;-86
2022/12/20 03:34:15;;;;;;;6.57;3.92;;;;;;;;;;5016312;28;20029;-86
2022/12/20 03:36:40;;;;;;;8.15;4.20;;;;;;;;;;5017036;28;20367;-87
2022/12/20 03:39:06;;;;;;;8.32;4.38;;;;;;;;;;5034510;28;20037;-88
2022/12/20 03:41:36;;;;;;;7.72;4.57;;;;;;;;;;5001127;28;20021;-87
2022/12/20 03:44:02;;;;;;;8.13;3.88;;;;;;;;;;5016198;28;20037;-87
2022/12/20 03:46:27;;;;;;;7.63;4.05;;;;;;;;;;5000647;28;20032;-85
2022/12/20 03:48:53;;;;;;;11.90;7.00;;;;;;;;;;5027376;28;20033;-86
2022/12/20 03:51:19;;;;;;;9.23;5.03;;;;;;;;;;5034360;28;20052;-87
2022/12/20 03:53:44;;;;;;;10.73;4.72;;;;;;;;;;4999792;28;20033;-88
2022/12/20 03:56:11;;;;;;;9.93;4.72;;;;;;;;;;5016140;28;20088;-86
2022/12/20 03:58:38;;;;;;;7.90;4.50;;;;;;;;;;5016869;28;20021;-87
2022/12/20 04:01:22;;;;;;;7.95;4.22;;;;;;;;;;5016654;28;20398;-87
2022/12/20 04:03:49;;;;;;;9.48;4.30;;;;;;;;;;5016558;28;20030;-88
2022/12/20 04:06:14;;;;;;;5.07;2.97;;;;;;;;;;4999846;28;20098;-86
2022/12/20 04:08:41;;;;;;;4.68;2.80;;;;;;;;;;5016521;28;20056;-87
2022/12/20 04:11:17;;;;;;;4.85;2.50;;;;;;;;;;5016604;28;20022;-87
2022/12/20 04:13:54;;;;;;;4.70;2.78;;;;;;;;;;5016564;28;20504;-90
2022/12/20 04:16:26;;;;;;;5.78;2.60;;;;;;;;;;5016319;28;20029;-87
2022/12/20 04:18:53;;;;;;;6.35;3.60;;;;;;;;;;5016534;28;20075;-89
2022/12/20 04:21:24;;;;;;;7.35;3.70;;;;;;;;;;5016349;28;20025;-88
2022/12/20 04:23:51;;;;;;;6.40;3.75;;;;;;;;;;5016631;28;20048;-88
2022/12/20 04:26:17;;;;;;;7.50;3.72;;;;;;;;;;5016131;28;20033;-88
2022/12/20 04:28:44;;;;;;;8.05;3.25;;;;;;;;;;5000121;28;20389;-88
2022/12/20 04:31:10;;;;;;;7.90;3.60;;;;;;;;;;5016095;28;20022;-88
2022/12/20 04:33:37;;;;;;;4.93;3.00;;;;;;;;;;5000156;28;20026;-88
2022/12/20 04:36:04;;;;;;;8.23;3.55;;;;;;;;;;5015907;28;20033;-87
2022/12/20 04:38:30;;;;;;;8.57;4.95;;;;;;;;;;5015870;28;20079;-88
2022/12/20 04:40:57;;;;;;;7.78;4.65;;;;;;;;;;5015809;28;20090;-88
2022/12/20 04:43:25;;;;;;;4.95;2.88;;;;;;;;;;5016291;28;20013;-88
2022/12/20 04:45:55;;;;;;;5.70;3.25;;;;;;;;;;5001322;28;20033;-87
2022/12/20 04:48:27;;;;;;;5.18;2.88;;;;;;;;;;5017651;28;20068;-87
2022/12/20 04:50:55;;;;;;;5.60;3.30;;;;;;;;;;5000085;28;20104;-87
2022/12/20 04:56:07;;;;;;;5.18;2.80;;;;;;;;;;5015026;28;20029;-90
2022/12/20 04:58:33;;;;;;;6.25;2.42;;;;;;;;;;5016513;28;20018;-88
2022/12/20 05:01:00;;;;;;;5.00;2.38;;;;;;;;;;5009812;28;20025;-87
2022/12/20 05:03:33;;;;;;;4.13;2.30;;;;;;;;;;5019564;28;20489;-88
2022/12/20 05:05:59;;;;;;;4.75;2.55;;;;;;;;;;5029961;28;20056;-87
2022/12/20 05:08:24;;;;;;;4.82;2.45;;;;;;;;;;5016293;28;20478;-87
2022/12/20 05:10:52;;;;;;;4.10;2.45;;;;;;;;;;4999966;28;20029;-88
2022/12/20 05:13:17;;;;;;;4.63;2.72;;;;;;;;;;5016330;28;20156;-88
2022/12/20 05:15:44;;;;;;;4.07;2.40;;;;;;;;;;5015412;28;20029;-87
2022/12/20 05:18:11;;;;;;;5.28;2.83;;;;;;;;;;5015801;28;20018;-87
2022/12/20 05:26:36;;;;;;;4.38;2.50;;;;;;;;;;5017206;28;20025;-87
2022/12/20 05:29:05;;;;;;;5.13;2.90;;;;;;;;;;5016946;28;20083;-88
2022/12/20 05:31:32;;;;;;;4.25;2.55;;;;;;;;;;5016498;28;20124;-88
2022/12/20 05:33:57;;;;;;;4.55;2.63;;;;;;;;;;5015941;28;20061;-84
2022/12/20 05:36:27;;;;;;;6.30;2.80;;;;;;;;;;5016818;28;20072;-87
2022/12/20 05:38:55;;;;;;;5.63;3.08;;;;;;;;;;5001466;28;20082;-86
2022/12/20 05:41:21;;;;;;;4.95;3.00;;;;;;;;;;5015795;28;20116;-87
2022/12/20 05:43:50;;;;;;;5.13;3.03;;;;;;;;;;5014837;28;20160;-88
2022/12/20 05:46:15;;;;;;;4.82;2.75;;;;;;;;;;5014334;28;20116;-87
2022/12/20 05:48:51;;;;;;;3.85;2.58;;;;;;;;;;5015163;28;20486;-86
2022/12/20 05:51:17;;;;;;;4.97;3.08;;;;;;;;;;5014767;28;20041;-90
2022/12/20 05:53:55;;;;;;;4.45;2.88;;;;;;;;;;5034344;28;20025;-84
2022/12/20 05:56:33;;;;;;;6.15;4.28;;;;;;;;;;5016104;28;20176;-87
2022/12/20 05:58:59;;;;;;;7.55;4.10;;;;;;;;;;5015062;28;20056;-88
2022/12/20 06:01:24;;;;;;;9.50;4.00;;;;;;;;;;5014657;28;20029;-88
2022/12/20 06:03:55;;;;;;;8.20;3.80;;;;;;;;;;5014288;28;20033;-85
2022/12/20 06:06:21;;;;;;;10.73;6.22;;;;;;;;;;5014136;28;20025;-89
2022/12/20 06:08:47;;;;;;;15.73;8.15;;;;;;;;;;5014464;28;20044;-88
2022/12/20 06:11:28;;;;;;;35.28;15.77;;;;;;;;;;5014167;28;20608;-88
2022/12/20 06:13:59;;;;;;;35.97;17.73;;;;;;;;;;5020885;28;20018;-82
2022/12/20 06:16:25;;;;;;;140.90;57.90;;;;;;;;;;5019771;28;20030;-88
2022/12/20 06:18:53;;;;;;;40.67;19.75;;;;;;;;;;5018866;28;20030;-88
2022/12/20 06:21:20;;;;;;;24.83;13.13;;;;;;;;;;5018988;28;20025;-88
2022/12/20 06:23:46;;;;;;;10.23;5.00;;;;;;;;;;5019102;28;20026;-87
2022/12/20 06:26:15;;;;;;;6.22;3.35;;;;;;;;;;5018677;28;20030;-88
2022/12/20 06:28:51;;;;;;;6.15;3.78;;;;;;;;;;5018765;28;20021;-87
2022/12/20 06:31:19;;;;;;;7.20;4.45;;;;;;;;;;5019680;28;20101;-87
2022/12/20 06:33:48;;;;;;;7.85;3.30;;;;;;;;;;5020013;28;20053;-87
2022/12/20 06:36:15;;;;;;;4.80;3.15;;;;;;;;;;5019810;28;20048;-87
2022/12/20 06:38:41;;;;;;;6.18;3.38;;;;;;;;;;5019961;28;20490;-88
2022/12/20 06:41:07;;;;;;;6.60;3.30;;;;;;;;;;5020364;28;20032;-86
2022/12/20 06:43:33;;;;;;;6.90;3.50;;;;;;;;;;5006601;28;20040;-88
2022/12/20 06:45:58;;;;;;;5.60;2.63;;;;;;;;;;5017980;28;20021;-88
2022/12/20 06:48:23;;;;;;;5.80;2.72;;;;;;;;;;5018605;28;20036;-88
2022/12/20 06:50:49;;;;;;;4.60;2.55;;;;;;;;;;5001791;28;20516;-88
2022/12/20 06:53:16;;;;;;;3.95;2.80;;;;;;;;;;5001756;28;20021;-88
2022/12/20 06:55:42;;;;;;;7.45;4.38;;;;;;;;;;5017253;28;20074;-87
2022/12/20 06:58:08;;;;;;;116.55;47.20;;;;;;;;;;5017690;28;20048;-88
2022/12/20 07:00:39;;;;;;;41.88;22.00;;;;;;;;;;5017725;28;20033;-87
2022/12/20 07:03:04;;;;;;;10.25;6.03;;;;;;;;;;5035684;28;20072;-88
2022/12/20 07:05:30;;;;;;;6.03;3.42;;;;;;;;;;5035120;28;20339;-87
2022/12/20 07:07:55;;;;;;;5.88;3.50;;;;;;;;;;5035755;28;20029;-89
2022/12/20 07:10:20;;;;;;;5.05;2.80;;;;;;;;;;5017556;28;20036;-88
2022/12/20 07:12:46;;;;;;;4.57;2.72;;;;;;;;;;5035280;28;20081;-87
2022/12/20 07:15:11;;;;;;;5.55;3.20;;;;;;;;;;5035386;28;20079;-87
2022/12/20 07:17:37;;;;;;;6.55;3.40;;;;;;;;;;5036070;28;20037;-88
2022/12/20 07:20:03;;;;;;;6.05;3.33;;;;;;;;;;5035765;28;20037;-87
2022/12/20 07:22:28;;;;;;;5.80;2.80;;;;;;;;;;5017862;28;20099;-87
2022/12/20 07:24:53;;;;;;;4.68;2.80;;;;;;;;;;5016818;28;20029;-87
2022/12/20 07:27:19;;;;;;;5.30;2.88;;;;;;;;;;5024543;28;20017;-84
2022/12/20 07:29:44;;;;;;;6.10;3.13;;;;;;;;;;5040307;28;20025;-87
2022/12/20 07:32:11;;;;;;;5.97;2.85;;;;;;;;;;5018627;28;20029;-89
2022/12/20 07:34:37;;;;;;;6.60;3.38;;;;;;;;;;5035990;28;20029;-88
2022/12/20 07:37:03;;;;;;;7.72;3.53;;;;;;;;;;5036039;28;20406;-87
2022/12/20 07:39:28;;;;;;;5.95;3.35;;;;;;;;;;5018730;28;20032;-87
2022/12/20 07:41:54;;;;;;;6.53;2.90;;;;;;;;;;5018280;28;20034;-87
2022/12/20 07:44:22;;;;;;;4.85;2.55;;;;;;;;;;5017950;28;20033;-86
2022/12/20 07:46:47;;;;;;;4.63;2.60;;;;;;;;;;5036982;28;20060;-86
2022/12/20 07:49:14;;;;;;;6.35;2.40;;;;;;;;;;5018207;28;20040;-87
2022/12/20 07:51:44;;;;;;;3.45;2.22;;;;;;;;;;5016467;28;20037;-87
2022/12/20 07:54:18;;;;;;;6.72;3.13;;;;;;;;;;5016437;28;20029;-87
2022/12/20 07:56:50;;;;;;;4.55;2.70;;;;;;;;;;5016959;28;20040;-87
2022/12/20 07:59:20;;;;;;;3.78;2.15;;;;;;;;;;5034910;28;20037;-86
2022/12/20 08:01:47;;;;;;;3.45;2.00;;;;;;;;;;5035158;28;20029;-87
2022/12/20 08:04:23;;;;;;;3.97;2.22;;;;;;;;;;5017248;28;20033;-83
2022/12/20 08:06:51;;;;;;;4.50;2.30;;;;;;;;;;5037662;28;20040;-90
2022/12/20 08:09:17;;;;;;;4.22;2.78;;;;;;;;;;5034564;28;20017;-89
2022/12/20 08:11:46;;;;;;;6.15;2.60;;;;;;;;;;5034082;28;20036;-88
2022/12/20 08:14:12;;;;;;;8.20;3.28;;;;;;;;;;5033760;28;20077;-89
2022/12/20 08:16:38;;;;;;;6.40;2.75;;;;;;;;;;5017471;28;20108;-88
2022/12/20 08:19:03;;;;;;;3.22;2.10;;;;;;;;;;5033850;28;20043;-87
2022/12/20 08:21:29;;;;;;;3.30;2.17;;;;;;;;;;5034100;28;20064;-90
2022/12/20 08:23:55;;;;;;;5.32;3.28;;;;;;;;;;5034667;28;20033;-81
2022/12/20 08:26:21;;;;;;;5.28;3.30;;;;;;;;;;5034000;28;20025;-87
2022/12/20 08:28:46;;;;;;;6.65;3.30;;;;;;;;;;5043306;28;20454;-86
2022/12/20 08:31:12;;;;;;;7.20;3.80;;;;;;;;;;5040444;28;20079;-85
2022/12/20 08:33:39;;;;;;;7.40;4.18;;;;;;;;;;5035401;28;20026;-88
2022/12/20 08:36:08;;;;;;;5.75;3.20;;;;;;;;;;5034197;28;20088;-91
2022/12/20 08:38:34;;;;;;;4.95;2.88;;;;;;;;;;5015732;28;20466;-84
2022/12/20 08:41:12;;;;;;;3.45;2.38;;;;;;;;;;5045582;28;20052;-89
2022/12/20 08:43:38;;;;;;;4.03;2.38;;;;;;;;;;5034394;28;20037;-88
2022/12/20 08:46:05;;;;;;;4.55;2.67;;;;;;;;;;5034099;28;20021;-87
2022/12/20 08:48:33;;;;;;;3.90;2.40;;;;;;;;;;5018329;28;20041;-87
2022/12/20 08:51:01;;;;;;;4.30;2.55;;;;;;;;;;5039793;28;20025;-87
2022/12/20 08:53:28;;;;;;;4.70;3.08;;;;;;;;;;5016156;28;20076;-86
2022/12/20 08:55:54;;;;;;;5.60;3.10;;;;;;;;;;5056829;22;20033;-82
2022/12/20 08:58:20;;;;;;;7.97;3.30;;;;;;;;;;5035837;28;20060;-84
2022/12/20 09:00:46;;;;;;;7.78;3.97;;;;;;;;;;5020464;28;20073;-85
2022/12/20 09:03:12;;;;;;;12.20;5.40;;;;;;;;;;5020231;28;20029;-84
2022/12/20 09:05:46;;;;;;;6.15;3.28;;;;;;;;;;5003136;28;20113;-84
2022/12/20 09:08:13;;;;;;;5.78;2.90;;;;;;;;;;4999688;28;20124;-84
2022/12/20 09:10:38;;;;;;;5.75;3.30;;;;;;;;;;5000554;28;20037;-83
2022/12/20 09:13:04;;;;;;;5.90;3.35;;;;;;;;;;4984562;28;20080;-84
2022/12/20 09:15:30;;;;;;;4.82;2.95;;;;;;;;;;4999830;28;20100;-86
2022/12/20 09:17:56;;;;;;;7.93;2.85;;;;;;;;;;5017980;28;20371;-84
2022/12/20 09:20:22;;;;;;;5.78;3.33;;;;;;;;;;5000709;28;20093;-83
2022/12/20 09:22:47;;;;;;;9.32;4.22;;;;;;;;;;5017642;28;20073;-82
2022/12/20 09:25:13;;;;;;;8.60;3.83;;;;;;;;;;5017264;28;20044;-84
2022/12/20 09:27:38;;;;;;;12.68;6.95;;;;;;;;;;4983918;28;20120;-82
2022/12/20 09:30:05;;;;;;;8.40;3.90;;;;;;;;;;5000192;28;20033;-83
2022/12/20 09:32:30;;;;;;;5.85;3.10;;;;;;;;;;5016540;28;20445;-85
2022/12/20 09:34:56;;;;;;;6.28;3.40;;;;;;;;;;5017846;28;20034;-82
2022/12/20 09:37:21;;;;;;;6.72;3.13;;;;;;;;;;5019469;28;20032;-82
2022/12/20 09:39:49;;;;;;;5.00;2.97;;;;;;;;;;4984484;28;20033;-84
2022/12/20 09:42:15;;;;;;;6.78;3.80;;;;;;;;;;5018076;28;20030;-84
2022/12/20 09:44:41;;;;;;;7.93;3.17;;;;;;;;;;5016638;28;20042;-81
2022/12/20 09:47:16;;;;;;;4.85;2.83;;;;;;;;;;4999330;28;20033;-82
2022/12/20 09:49:45;;;;;;;13.88;6.93;;;;;;;;;;5017924;28;20033;-84
2022/12/20 09:52:22;;;;;;;7.57;3.88;;;;;;;;;;5016129;28;20014;-83
2022/12/20 09:54:56;;;;;;;11.18;6.68;;;;;;;;;;4983869;28;20030;-84
2022/12/20 09:57:28;;;;;;;13.32;6.10;;;;;;;;;;5001714;28;20037;-85
2022/12/20 09:59:57;;;;;;;6.32;3.20;;;;;;;;;;5001632;28;20172;-85
2022/12/20 10:02:24;;;;;;;3.80;2.03;;;;;;;;;;5018895;28;20021;-85
2022/12/20 10:04:50;;;;;;;3.15;1.70;;;;;;;;;;5000872;28;20041;-85
2022/12/20 10:07:30;;;;;;;4.05;1.98;;;;;;;;;;5019053;28;20438;-85
2022/12/20 10:09:56;;;;;;;5.07;2.25;;;;;;;;;;5001719;28;20088;-84
2022/12/20 10:12:40;;;;;;;4.13;1.90;;;;;;;;;;5000401;28;20033;-84
2022/12/20 10:15:10;;;;;;;3.10;1.80;;;;;;;;;;5000312;28;20076;-85
2022/12/20 10:17:55;;;;;;;4.28;1.95;;;;;;;;;;5018646;28;20034;-84
2022/12/20 10:20:27;;;;;;;3.03;1.83;;;;;;;;;;4983524;28;20118;-83
2022/12/20 10:23:22;;;;;;;5.95;2.20;;;;;;;;;;5018753;28;20025;-85
2022/12/20 10:25:53;;;;;;;4.22;1.88;;;;;;;;;;5018023;28;20241;-86
2022/12/20 10:28:29;;;;;;;3.50;2.05;;;;;;;;;;5000721;28;20030;-85
2022/12/20 10:31:02;;;;;;;3.95;2.20;;;;;;;;;;5018659;28;20049;-84
2022/12/20 10:33:30;;;;;;;3.65;1.90;;;;;;;;;;4985209;28;20061;-85
2022/12/20 10:36:18;;;;;;;3.95;2.28;;;;;;;;;;5000716;28;20049;-83
2022/12/20 10:38:47;;;;;;;5.07;2.50;;;;;;;;;;5018856;28;20048;-85
2022/12/20 10:41:19;;;;;;;4.55;2.60;;;;;;;;;;5018140;28;20026;-84
2022/12/20 10:43:49;;;;;;;5.18;2.53;;;;;;;;;;5000615;28;20108;-84
2022/12/20 10:46:15;;;;;;;3.65;2.05;;;;;;;;;;5017315;28;20034;-84
2022/12/20 10:48:43;;;;;;;3.42;1.98;;;;;;;;;;5018959;28;20044;-85
2022/12/20 10:51:09;;;;;;;3.83;2.08;;;;;;;;;;5000243;28;20036;-86
2022/12/20 10:53:36;;;;;;;3.80;2.22;;;;;;;;;;5001638;28;20490;-81
2022/12/20 10:56:15;;;;;;;4.10;2.40;;;;;;;;;;5016240;28;20034;-84
2022/12/20 10:58:41;;;;;;;5.32;2.50;;;;;;;;;;5017538;28;20661;-84
2022/12/20 11:01:09;;;;;;;6.75;2.55;;;;;;;;;;5000219;28;20136;-83
2022/12/20 11:03:49;;;;;;;4.93;2.40;;;;;;;;;;5019725;28;20034;-82
2022/12/20 11:06:17;;;;;;;4.93;3.00;;;;;;;;;;5003531;28;20029;-83
2022/12/20 11:08:42;;;;;;;5.20;2.83;;;;;;;;;;5021202;28;20021;-83
2022/12/20 11:11:13;;;;;;;4.95;2.63;;;;;;;;;;5021145;28;20034;-84
2022/12/20 11:13:40;;;;;;;5.38;2.55;;;;;;;;;;5022160;28;20475;-83
2022/12/20 11:16:19;;;;;;;4.15;2.50;;;;;;;;;;5021250;28;20033;-84
2022/12/20 11:19:04;;;;;;;4.78;2.78;;;;;;;;;;5004797;28;20053;-83
2022/12/20 11:21:43;;;;;;;3.55;2.38;;;;;;;;;;5023124;28;20041;-83
2022/12/20 11:24:27;;;;;;;2.90;2.13;;;;;;;;;;5021796;28;20057;-83
2022/12/20 11:27:27;;;;;;;6.85;2.70;;;;;;;;;;5022321;28;20037;-84
2022/12/20 11:29:55;;;;;;;7.65;3.85;;;;;;;;;;5021923;28;20061;-82
2022/12/20 11:32:53;;;;;;;9.38;5.22;;;;;;;;;;5003175;28;20033;-82
2022/12/20 11:35:50;;;;;;;9.25;4.72;;;;;;;;;;5003794;28;20033;-84
2022/12/20 11:38:42;;;;;;;8.65;5.30;;;;;;;;;;5003770;28;20068;-84
2022/12/20 11:41:17;;;;;;;11.10;6.25;;;;;;;;;;4987314;28;20026;-84
2022/12/20 11:43:54;;;;;;;13.50;7.65;;;;;;;;;;4987054;28;20064;-86
2022/12/20 11:46:44;;;;;;;13.13;7.60;;;;;;;;;;5003950;28;20083;-83
2022/12/20 11:49:16;;;;;;;11.77;6.93;;;;;;;;;;5004983;28;20037;-82
2022/12/20 11:51:47;;;;;;;13.25;7.07;;;;;;;;;;5021531;28;20034;-83
2022/12/20 11:54:31;;;;;;;13.70;7.65;;;;;;;;;;5003300;28;20040;-82
2022/12/20 11:57:03;;;;;;;11.93;7.32;;;;;;;;;;5021033;28;20046;-84
2022/12/20 11:59:35;;;;;;;11.40;7.28;;;;;;;;;;5003775;28;20029;-83
2022/12/20 12:02:08;;;;;;;12.57;7.68;;;;;;;;;;5003742;28;20037;-84
2022/12/20 12:04:40;;;;;;;12.70;7.50;;;;;;;;;;5002790;28;20045;-83
2022/12/20 12:07:12;;;;;;;13.30;7.75;;;;;;;;;;5003534;28;20030;-82
2022/12/20 12:09:41;;;;;;;12.20;7.57;;;;;;;;;;5003716;28;20034;-84
2022/12/20 12:12:23;;;;;;;12.90;7.95;;;;;;;;;;5003744;28;20540;-83
2022/12/20 12:15:19;;;;;;;15.60;8.70;;;;;;;;;;5002790;28;20042;-84
2022/12/20 12:17:52;;;;;;;14.32;7.82;;;;;;;;;;5021479;28;20089;-83
2022/12/20 12:20:32;;;;;;;15.05;8.43;;;;;;;;;;5022014;28;20033;-85
2022/12/20 12:23:06;;;;;;;21.77;9.77;;;;;;;;;;5003272;28;20038;-84
2022/12/20 12:25:31;;;;;;;13.73;8.32;;;;;;;;;;5002401;28;20030;-83
2022/12/20 12:27:57;;;;;;;9.85;6.55;;;;;;;;;;5019824;28;20453;-83
2022/12/20 12:30:23;;;;;;;16.75;9.88;;;;;;;;;;5002700;28;20405;-83
2022/12/20 12:33:02;;;;;;;17.00;8.63;;;;;;;;;;5003216;28;20034;-83
2022/12/20 12:36:05;;;;;;;20.38;11.02;;;;;;;;;;5003182;28;20041;-84
2022/12/20 12:38:55;;;;;;;10.20;4.90;;;;;;;;;;5020142;28;20040;-84
2022/12/20 12:41:46;;;;;;;15.82;7.38;;;;;;;;;;4986176;28;20037;-83
2022/12/20 12:44:35;;;;;;;14.27;6.65;;;;;;;;;;5002967;28;20083;-83
2022/12/20 12:47:10;;;;;;;10.52;5.30;;;;;;;;;;5003058;28;20034;-84
2022/12/20 12:49:37;;;;;;;8.23;4.40;;;;;;;;;;5002699;28;20093;-83
2022/12/20 12:52:04;;;;;;;95.95;41.22;;;;;;;;;;5020156;28;20514;-85
2022/12/20 12:54:38;;;;;;;74.68;33.78;;;;;;;;;;4986373;28;20037;-84
2022/12/20 12:57:16;;;;;;;34.33;16.60;;;;;;;;;;5021001;28;20033;-82
2022/12/20 12:59:44;;;;;;;12.70;7.13;;;;;;;;;;5002781;28;20048;-83
2022/12/20 13:02:12;;;;;;;11.40;7.38;;;;;;;;;;5002303;28;20030;-84
2022/12/20 13:04:52;;;;;;;12.23;7.10;;;;;;;;;;5019428;28;20030;-84
2022/12/20 13:07:33;;;;;;;39.90;20.35;;;;;;;;;;5018746;28;20502;-83
2022/12/20 13:10:20;;;;;;;25.73;13.43;;;;;;;;;;5020801;28;20394;-84
2022/12/20 13:12:49;;;;;;;20.38;9.95;;;;;;;;;;5002601;28;20033;-84
2022/12/20 13:15:20;;;;;;;11.13;5.72;;;;;;;;;;5002327;28;20037;-84
2022/12/20 13:18:00;;;;;;;11.52;6.07;;;;;;;;;;5003070;28;20069;-83
2022/12/20 13:20:33;;;;;;;12.15;6.35;;;;;;;;;;5020519;28;20104;-84
2022/12/20 13:23:07;;;;;;;;;;;;;;;;;;5002671;28;20037;-84
2022/12/20 13:25:36;;;;;;;10.35;5.55;;;;;;;;;;5016678;28;19909;-83
2022/12/20 13:28:21;;;;;;;10.60;5.53;;;;;;;;;;4985468;28;20537;-83
2022/12/20 13:31:06;;;;;;;9.45;4.85;;;;;;;;;;5019363;28;20355;-82
2022/12/20 13:33:46;;;;;;;10.35;6.22;;;;;;;;;;5000891;28;20041;-84
2022/12/20 13:36:15;;;;;;;15.73;7.88;;;;;;;;;;5018504;28;20068;-85
2022/12/20 13:38:54;;;;;;;11.82;7.18;;;;;;;;;;5002044;28;20038;-85
2022/12/20 13:41:29;;;;;;;12.00;7.47;;;;;;;;;;5002120;28;20037;-84
2022/12/20 13:43:58;;;;;;;15.10;8.02;;;;;;;;;;5002270;28;20030;-84
2022/12/20 13:46:46;;;;;;;17.33;8.90;;;;;;;;;;5001628;28;20034;-84
2022/12/20 13:49:21;;;;;;;26.75;11.85;;;;;;;;;;5020047;28;20053;-84
2022/12/20 13:51:47;;;;;;;39.13;15.00;;;;;;;;;;5019199;28;20034;-85
2022/12/20 13:54:18;;;;;;;30.85;13.65;;;;;;;;;;5001577;28;20024;-83
2022/12/20 13:56:48;;;;;;;33.80;15.32;;;;;;;;;;5018405;28;20041;-85
2022/12/20 13:59:23;;;;;;;34.15;15.68;;;;;;;;;;5018970;28;20104;-83
2022/12/20 14:01:51;;;;;;;57.58;18.85;;;;;;;;;;5019102;28;20093;-85
2022/12/20 14:04:19;;;;;;;39.33;15.95;;;;;;;;;;5000199;28;20034;-85
2022/12/20 14:06:52;;;;;;;27.42;13.05;;;;;;;;;;5017025;28;20104;-83
2022/12/20 14:09:30;;;;;;;25.35;12.23;;;;;;;;;;4998673;28;20129;-83
2022/12/20 14:12:02;;;;;;;24.10;11.43;;;;;;;;;;4998405;28;20049;-83
2022/12/20 14:14:27;;;;;;;36.97;17.83;;;;;;;;;;5014734;28;20029;-83
2022/12/20 14:16:53;;;;;;;28.27;14.93;;;;;;;;;;4998744;28;20477;-85
2022/12/20 14:19:18;;;;;;;24.13;13.23;;;;;;;;;;5015958;28;20096;-83
2022/12/20 14:21:45;;;;;;;23.42;13.30;;;;;;;;;;5015831;28;20033;-85
2022/12/20 14:24:17;;;;;;;22.85;12.25;;;;;;;;;;5015636;28;20029;-83
2022/12/20 14:26:50;;;;;;;24.05;12.82;;;;;;;;;;5016015;28;20501;-83
2022/12/20 14:29:26;;;;;;;29.95;16.20;;;;;;;;;;5016209;28;20493;-84
2022/12/20 14:31:52;;;;;;;21.13;12.07;;;;;;;;;;5016091;28;20029;-84
2022/12/20 14:34:24;;;;;;;23.15;12.57;;;;;;;;;;5000239;28;20036;-85
2022/12/20 14:36:49;;;;;;;28.95;16.27;;;;;;;;;;5019652;28;20026;-84
2022/12/20 14:39:34;;;;;;;22.52;13.77;;;;;;;;;;5022080;28;20478;-84
2022/12/20 14:42:06;;;;;;;27.83;14.10;;;;;;;;;;5024846;28;20026;-85
2022/12/20 14:44:33;;;;;;;28.27;13.27;;;;;;;;;;5006118;28;20042;-85
2022/12/20 14:47:14;;;;;;;21.73;12.85;;;;;;;;;;5024121;28;20144;-84
2022/12/20 14:49:53;;;;;;;18.90;10.35;;;;;;;;;;5024433;28;20042;-85
2022/12/20 14:52:38;;;;;;;15.50;8.52;;;;;;;;;;5023490;28;20064;-84
2022/12/20 14:55:18;;;;;;;14.85;9.02;;;;;;;;;;5024072;28;20033;-84
2022/12/20 14:57:45;;;;;;;14.57;8.57;;;;;;;;;;5022000;28;20030;-84
2022/12/20 15:00:16;;;;;;;16.50;9.23;;;;;;;;;;5006438;28;20022;-84
2022/12/20 15:03:22;;;;;;;18.15;9.27;;;;;;;;;;5024261;28;20121;-83
2022/12/20 15:05:52;;;;;;;17.33;8.60;;;;;;;;;;4949389;28;20054;-84
2022/12/20 15:08:31;;;;;;;14.30;8.65;;;;;;;;;;4982810;28;20030;-85
2022/12/20 15:11:09;;;;;;;14.80;8.23;;;;;;;;;;4997120;28;20063;-85